Time;durP1;ratioP1;P1;durP2;ratioP2;P2;SDS_P1;SDS_P2;PMS_P1;PMS_P2;Temp;Humidity;BMP_temperature;BMP_pressure;BME280_temperature;BME280_humidity;BME280_pressure;Samples;Min_cycle;Max_cycle;Signal;HPM_P1;HPM_P2
2024/02/25 00:01:51;;;;;;;4.30;2.22;;;;;;;9.67;57.03;100030.31;4949261;28;96995;-89
2024/02/25 00:04:17;;;;;;;4.43;1.80;;;;;;;9.66;56.88;100027.69;4936022;28;100807;-89
2024/02/25 00:06:49;;;;;;;4.18;1.30;;;;;;;9.66;57.07;100027.69;4948731;28;100784;-89
2024/02/25 00:09:14;;;;;;;6.13;1.38;;;;;;;9.65;56.91;100032.03;4951908;28;96784;-89
2024/02/25 00:11:43;;;;;;;5.20;2.70;;;;;;;9.66;56.83;100025.09;4933592;28;97272;-89
2024/02/25 00:14:08;;;;;;;3.58;2.05;;;;;;;9.67;57.10;100025.09;4967927;28;98954;-88
2024/02/25 00:16:35;;;;;;;3.90;2.15;;;;;;;9.66;57.02;100022.50;4947343;28;100530;-89
2024/02/25 00:19:02;;;;;;;4.85;2.08;;;;;;;9.66;57.10;100028.59;4947343;28;96865;-88
2024/02/25 00:21:28;;;;;;;5.85;2.00;;;;;;;9.66;56.90;100018.19;4944088;28;96805;-88
2024/02/25 00:23:53;;;;;;;4.10;1.80;;;;;;;9.69;56.98;100023.38;4947645;28;98024;-88
2024/02/25 00:26:19;;;;;;;4.25;1.83;;;;;;;9.70;56.92;100019.06;4932453;28;100125;-88
2024/02/25 00:28:44;;;;;;;5.32;2.63;;;;;;;9.70;56.84;100011.25;4951303;28;96786;-89
2024/02/25 00:31:10;;;;;;;4.95;2.22;;;;;;;9.70;56.92;100009.50;4945426;28;96879;-89
2024/02/25 00:33:35;;;;;;;4.32;1.30;;;;;;;9.72;56.95;100020.78;4942434;28;100489;-89
2024/02/25 00:36:01;;;;;;;6.65;2.13;;;;;;;9.73;56.85;100013.84;4964712;28;100348;-88
2024/02/25 00:38:26;;;;;;;5.43;2.47;;;;;;;9.74;57.03;100012.13;4945688;28;96863;-88
2024/02/25 00:40:52;;;;;;;6.45;2.78;;;;;;;9.75;56.78;100019.94;4940897;28;96917;-88
2024/02/25 00:43:17;;;;;;;3.72;2.40;;;;;;;9.74;56.68;100018.19;4946631;28;97685;-88
2024/02/25 00:45:43;;;;;;;5.63;1.83;;;;;;;9.74;56.74;100012.97;4947306;28;99185;-89
2024/02/25 00:48:08;;;;;;;3.80;2.53;;;;;;;9.75;56.91;100011.22;4929410;28;96886;-87
2024/02/25 00:50:37;;;;;;;5.55;1.88;;;;;;;9.76;56.66;100019.06;4950148;28;96740;-88
2024/02/25 00:53:02;;;;;;;4.07;2.35;;;;;;;9.76;56.81;100024.25;4932785;28;101389;-88
2024/02/25 00:55:28;;;;;;;4.63;2.28;;;;;;;9.72;56.87;100019.91;4931347;28;100420;-88
2024/02/25 00:57:53;;;;;;;5.13;2.58;;;;;;;9.72;56.72;100026.00;4949512;28;96826;-88
2024/02/25 01:00:19;;;;;;;5.88;2.67;;;;;;;9.73;56.93;100024.25;4961313;28;96912;-87
2024/02/25 01:02:46;;;;;;;6.38;2.63;;;;;;;9.71;56.90;100023.38;4945215;28;100495;-89
2024/02/25 01:05:12;;;;;;;7.25;2.47;;;;;;;9.72;56.87;100028.59;4928769;28;100658;-88
2024/02/25 01:07:38;;;;;;;4.30;2.33;;;;;;;9.70;56.85;100017.31;4961847;28;97019;-88
2024/02/25 01:10:05;;;;;;;6.30;2.75;;;;;;;9.72;56.88;100025.13;4967690;28;96854;-88
2024/02/25 01:12:30;;;;;;;7.28;2.40;;;;;;;9.69;56.87;100025.97;4960173;28;100886;-88
2024/02/25 01:14:56;;;;;;;4.10;2.50;;;;;;;9.68;56.98;100023.41;4963941;28;100451;-87
2024/02/25 01:17:21;;;;;;;5.22;2.28;;;;;;;9.68;57.06;100021.66;4941412;28;96841;-88
2024/02/25 01:19:48;;;;;;;4.90;2.47;;;;;;;9.67;57.03;100019.91;4962409;28;96982;-88
2024/02/25 01:22:15;;;;;;;4.72;2.10;;;;;;;9.65;57.02;100016.44;4928546;28;98379;-88
2024/02/25 01:24:41;;;;;;;4.85;1.95;;;;;;;9.65;57.13;100021.63;4962584;28;99856;-89
2024/02/25 01:27:07;;;;;;;5.55;2.70;;;;;;;9.65;57.27;100020.78;4947644;28;96818;-88
2024/02/25 01:29:32;;;;;;;6.22;2.78;;;;;;;9.65;57.06;100020.78;4943905;28;96907;-88
2024/02/25 01:31:58;;;;;;;5.82;2.88;;;;;;;9.65;57.65;100018.16;4961102;28;97940;-89
2024/02/25 01:34:25;;;;;;;5.28;2.70;;;;;;;9.67;57.33;100022.50;4933112;28;100316;-88
2024/02/25 01:36:51;;;;;;;6.18;2.47;;;;;;;9.68;57.18;100020.78;4962358;28;96896;-88
2024/02/25 01:39:17;;;;;;;4.15;2.50;;;;;;;9.66;57.33;100020.78;4932619;28;96899;-88
2024/02/25 01:41:43;;;;;;;5.15;2.92;;;;;;;9.64;57.37;100014.69;4948437;28;97831;-89
2024/02/25 01:44:08;;;;;;;5.18;2.65;;;;;;;9.65;57.25;100010.34;4943249;28;99297;-89
2024/02/25 01:46:36;;;;;;;5.38;2.55;;;;;;;9.63;57.48;100018.16;4931289;28;96966;-89
2024/02/25 01:49:02;;;;;;;4.53;2.38;;;;;;;9.63;57.53;100015.56;4949291;28;96883;-88
2024/02/25 01:51:28;;;;;;;5.05;2.63;;;;;;;9.65;57.70;100006.00;4951178;28;97959;-88
2024/02/25 01:53:54;;;;;;;3.90;2.63;;;;;;;9.66;57.76;100007.75;4932740;28;100568;-88
2024/02/25 01:56:20;;;;;;;4.07;2.45;;;;;;;9.66;57.71;100012.06;4945826;28;96862;-89
2024/02/25 01:58:53;;;;;;;5.07;2.70;;;;;;;9.64;57.49;100006.91;4943162;28;96858;-89
2024/02/25 02:01:19;;;;;;;4.47;1.63;;;;;;;9.64;57.70;100013.81;4927348;28;100207;-88
2024/02/25 02:03:45;;;;;;;4.65;2.72;;;;;;;9.62;57.61;100011.19;4927645;28;100220;-88
2024/02/25 02:06:11;;;;;;;4.57;2.60;;;;;;;9.60;57.79;100015.53;4927058;28;96938;-89
2024/02/25 02:08:39;;;;;;;5.13;2.75;;;;;;;9.59;57.86;100013.81;4950256;28;96843;-88
2024/02/25 02:11:18;;;;;;;5.85;2.85;;;;;;;9.52;57.79;100010.31;4956989;28;97871;-89
2024/02/25 02:13:45;;;;;;;4.22;2.88;;;;;;;9.51;57.90;100011.16;4955840;28;100456;-88
2024/02/25 02:16:13;;;;;;;3.20;1.58;;;;;;;9.50;58.05;100009.44;4948855;28;96751;-88
2024/02/25 02:18:43;;;;;;;6.85;3.20;;;;;;;9.50;58.16;100003.34;4953906;28;96939;-88
2024/02/25 02:21:09;;;;;;;5.10;3.28;;;;;;;9.48;58.25;100003.38;4951073;28;100890;-88
2024/02/25 02:23:35;;;;;;;7.55;3.38;;;;;;;9.46;58.16;100009.41;4950101;28;98985;-88
2024/02/25 02:26:01;;;;;;;4.13;2.22;;;;;;;9.43;58.20;100009.41;4950010;28;97005;-88
2024/02/25 02:28:26;;;;;;;4.68;2.28;;;;;;;9.41;58.46;100004.22;4947779;28;97083;-88
2024/02/25 02:30:51;;;;;;;5.07;3.80;;;;;;;9.39;58.43;100005.06;4928560;28;100452;-88
2024/02/25 02:33:17;;;;;;;4.82;3.15;;;;;;;9.36;58.51;100002.44;4938236;28;100360;-88
2024/02/25 02:35:42;;;;;;;4.93;3.80;;;;;;;9.31;58.61;100005.88;4943303;28;96891;-88
2024/02/25 02:38:10;;;;;;;5.03;3.33;;;;;;;9.30;58.74;99998.97;4932821;28;96966;-88
2024/02/25 02:40:35;;;;;;;8.48;4.07;;;;;;;9.29;58.93;100006.75;4945104;28;100598;-88
2024/02/25 02:43:02;;;;;;;6.30;3.92;;;;;;;9.27;58.90;100009.34;4933188;28;100141;-89
2024/02/25 02:45:27;;;;;;;7.75;4.20;;;;;;;9.27;58.99;100013.66;4929210;28;96775;-88
2024/02/25 02:47:53;;;;;;;6.30;3.80;;;;;;;9.27;59.25;100006.75;4935082;28;96888;-89
2024/02/25 02:50:18;;;;;;;5.13;3.45;;;;;;;9.29;59.25;100006.75;4951030;28;99036;-88
2024/02/25 02:52:43;;;;;;;5.00;3.00;;;;;;;9.27;59.17;100008.47;4949898;28;100158;-88
2024/02/25 02:55:09;;;;;;;6.22;4.18;;;;;;;9.28;59.19;100007.59;4966066;28;96807;-88
2024/02/25 02:57:34;;;;;;;6.38;4.35;;;;;;;9.27;59.23;100005.84;4960784;28;96935;-86
2024/02/25 03:00:00;;;;;;;5.75;4.10;;;;;;;9.26;59.35;100005.00;4950002;28;98931;-88
2024/02/25 03:02:25;;;;;;;6.75;4.28;;;;;;;9.24;59.23;100009.31;4950033;28;100322;-89
2024/02/25 03:04:51;;;;;;;6.22;4.40;;;;;;;9.22;59.30;100003.25;4964296;28;96862;-87
2024/02/25 03:07:17;;;;;;;5.70;3.50;;;;;;;9.20;59.22;99994.56;4946028;28;97080;-88
2024/02/25 03:09:42;;;;;;;7.07;5.00;;;;;;;9.21;59.53;100008.44;4942096;28;97621;-88
2024/02/25 03:12:08;;;;;;;5.65;3.63;;;;;;;9.20;59.47;99999.78;4942278;28;97617;-89
2024/02/25 03:14:36;;;;;;;8.73;5.03;;;;;;;9.20;59.28;100004.97;4929066;28;96917;-88
2024/02/25 03:17:01;;;;;;;6.40;4.70;;;;;;;9.19;59.51;100000.63;4947951;28;96945;-88
2024/02/25 03:19:27;;;;;;;6.95;4.93;;;;;;;9.22;59.61;100007.59;4946762;28;99947;-89
2024/02/25 03:21:52;;;;;;;8.10;4.20;;;;;;;9.22;59.78;99997.19;4941101;28;97441;-88
2024/02/25 03:24:18;;;;;;;7.20;4.10;;;;;;;9.23;59.65;99996.31;4948802;28;96800;-88
2024/02/25 03:26:47;;;;;;;6.75;4.70;;;;;;;9.24;59.79;99993.72;4940262;28;96887;-88
2024/02/25 03:29:13;;;;;;;8.20;3.80;;;;;;;9.24;59.56;99998.91;4928619;28;100456;-88
2024/02/25 03:31:39;;;;;;;8.23;5.50;;;;;;;9.26;59.76;100010.19;4932060;28;100401;-88
2024/02/25 03:34:04;;;;;;;8.20;4.72;;;;;;;9.25;59.86;100005.88;4946296;28;96882;-88
2024/02/25 03:36:30;;;;;;;8.43;5.15;;;;;;;9.23;59.55;100007.56;4952565;28;96886;-88
2024/02/25 03:38:56;;;;;;;7.53;5.15;;;;;;;9.24;59.83;100003.25;4933118;28;100177;-89
2024/02/25 03:41:21;;;;;;;8.77;4.10;;;;;;;9.23;59.96;100009.31;4947189;28;100215;-88
2024/02/25 03:43:47;;;;;;;6.82;4.00;;;;;;;9.23;59.88;100004.97;4947931;28;96944;-88
2024/02/25 03:46:12;;;;;;;11.18;5.18;;;;;;;9.23;59.94;100009.31;4932178;28;96781;-88
2024/02/25 03:48:38;;;;;;;8.73;5.10;;;;;;;9.23;60.12;100009.31;4968523;28;100724;-88
2024/02/25 03:51:03;;;;;;;7.63;3.80;;;;;;;9.22;60.10;100005.84;4961620;28;97434;-88
2024/02/25 03:53:29;;;;;;;8.50;4.93;;;;;;;9.20;59.87;100011.91;4947215;28;96950;-88
2024/02/25 03:55:54;;;;;;;8.27;4.70;;;;;;;9.16;59.87;100011.00;4946805;28;96819;-88
2024/02/25 03:58:19;;;;;;;6.25;4.38;;;;;;;9.14;60.19;100008.44;4948721;28;100218;-88
2024/02/25 04:00:45;;;;;;;7.00;4.78;;;;;;;9.10;60.28;100004.06;4927263;28;100877;-88
2024/02/25 04:03:10;;;;;;;7.72;4.63;;;;;;;9.09;60.49;100001.44;4926577;28;96855;-88
2024/02/25 04:05:36;;;;;;;6.78;5.20;;;;;;;9.10;60.33;100008.41;4947519;28;97024;-88
2024/02/25 04:08:01;;;;;;;7.43;4.72;;;;;;;9.08;60.54;100004.91;4931413;28;100697;-88
2024/02/25 04:10:28;;;;;;;6.93;4.97;;;;;;;9.08;60.50;100010.13;4925692;28;100637;-88
2024/02/25 04:12:53;;;;;;;6.28;4.03;;;;;;;9.07;60.59;100008.38;4928490;28;96873;-88
2024/02/25 04:15:19;;;;;;;7.60;4.43;;;;;;;9.08;60.76;100007.53;4964806;28;96895;-88
2024/02/25 04:17:44;;;;;;;6.97;4.07;;;;;;;9.09;60.68;100009.25;4945846;28;99198;-88
2024/02/25 04:20:10;;;;;;;6.53;3.92;;;;;;;9.09;60.73;100011.84;4962804;28;100227;-88
2024/02/25 04:22:35;;;;;;;6.85;4.43;;;;;;;9.13;60.80;100016.22;4964699;28;96933;-88
2024/02/25 04:25:01;;;;;;;6.95;4.50;;;;;;;9.14;60.64;100020.53;4943985;28;97081;-88
2024/02/25 04:27:26;;;;;;;8.27;4.78;;;;;;;9.14;60.78;100020.53;4926004;28;100315;-88
2024/02/25 04:29:52;;;;;;;8.77;4.00;;;;;;;9.17;60.93;100011.91;4950998;28;99875;-89
2024/02/25 04:32:17;;;;;;;7.47;4.63;;;;;;;9.21;60.98;100013.66;4936500;28;96928;-88
2024/02/25 04:34:43;;;;;;;8.77;4.85;;;;;;;9.22;60.87;100007.59;4947332;28;96847;-88
2024/02/25 04:37:08;;;;;;;8.57;5.72;;;;;;;9.22;60.75;100005.84;4944978;28;97675;-88
2024/02/25 04:39:38;;;;;;;10.98;6.43;;;;;;;9.22;60.78;100013.66;4944770;28;97860;-88
2024/02/25 04:42:06;;;;;;;11.05;6.40;;;;;;;9.19;60.82;100004.97;4952562;28;96919;-89
2024/02/25 04:44:32;;;;;;;12.15;6.75;;;;;;;9.19;60.98;100012.78;4950920;28;96879;-88
2024/02/25 04:46:58;;;;;;;10.60;6.55;;;;;;;9.19;60.95;100010.19;4942819;28;100516;-88
2024/02/25 04:49:24;;;;;;;11.77;5.40;;;;;;;9.20;60.99;100009.28;4937043;28;99276;-88
2024/02/25 04:51:49;;;;;;;11.02;6.45;;;;;;;9.20;61.06;100007.59;4947015;28;96917;-88
2024/02/25 04:54:15;;;;;;;9.02;4.78;;;;;;;9.22;61.27;100021.47;4946756;28;96802;-89
2024/02/25 04:56:43;;;;;;;9.10;5.70;;;;;;;9.23;60.95;100017.97;4949704;28;97924;-88
2024/02/25 04:59:10;;;;;;;9.18;5.85;;;;;;;9.24;60.91;100021.47;4925964;28;100315;-88
2024/02/25 05:01:43;;;;;;;9.82;5.38;;;;;;;9.23;61.18;100022.31;4945460;28;96808;-88
2024/02/25 05:04:09;;;;;;;10.18;5.65;;;;;;;9.25;61.17;100018.88;4942393;28;96773;-88
2024/02/25 05:06:37;;;;;;;8.73;5.43;;;;;;;9.26;61.08;100019.75;4937335;28;100229;-88
2024/02/25 05:09:03;;;;;;;9.68;5.88;;;;;;;9.29;61.29;100018.03;4931319;28;100258;-88
2024/02/25 05:11:30;;;;;;;11.18;5.65;;;;;;;9.31;61.12;100025.84;4931253;28;96936;-89
2024/02/25 05:13:58;;;;;;;11.85;6.53;;;;;;;9.34;61.08;100020.66;4962490;28;96826;-88
2024/02/25 05:16:23;;;;;;;8.70;6.25;;;;;;;9.36;61.17;100024.13;4927422;28;100114;-88
2024/02/25 05:18:49;;;;;;;11.68;6.82;;;;;;;9.37;61.09;100025.00;4960389;28;100300;-88
2024/02/25 05:21:14;;;;;;;10.27;5.60;;;;;;;9.37;61.05;100019.78;4963146;28;96939;-89
2024/02/25 05:23:40;;;;;;;10.13;6.50;;;;;;;9.37;61.12;100030.19;4941482;28;96888;-88
2024/02/25 05:26:05;;;;;;;9.95;6.30;;;;;;;9.38;61.08;100024.16;4962117;28;100600;-87
2024/02/25 05:28:31;;;;;;;10.57;6.53;;;;;;;9.37;61.17;100025.88;4927517;28;99874;-88
2024/02/25 05:30:56;;;;;;;10.55;6.45;;;;;;;9.38;61.03;100029.34;4958702;28;96908;-89
2024/02/25 05:33:22;;;;;;;10.85;5.80;;;;;;;9.38;61.08;100031.97;4961012;28;97041;-89
2024/02/25 05:35:48;;;;;;;12.75;6.93;;;;;;;9.37;61.30;100025.88;4954465;28;98075;-88
2024/02/25 05:38:14;;;;;;;10.52;6.78;;;;;;;9.37;60.92;100028.47;4944550;28;97552;-88
2024/02/25 05:40:41;;;;;;;10.23;6.30;;;;;;;9.38;61.19;100031.97;4948397;28;97033;-88
2024/02/25 05:43:07;;;;;;;11.30;6.72;;;;;;;9.37;61.24;100031.06;4931986;28;97016;-89
2024/02/25 05:45:33;;;;;;;10.85;5.93;;;;;;;9.36;61.27;100026.75;4945784;28;100468;-89
2024/02/25 05:47:59;;;;;;;10.75;6.47;;;;;;;9.37;61.36;100031.06;4947944;28;100124;-88
2024/02/25 05:50:24;;;;;;;10.32;6.80;;;;;;;9.38;61.54;100030.22;4931260;28;96804;-88
2024/02/25 05:52:50;;;;;;;10.15;6.85;;;;;;;9.37;61.33;100031.06;4945155;28;96716;-91
2024/02/25 05:55:17;;;;;;;11.52;7.03;;;;;;;9.39;61.19;100036.28;4949321;28;99604;-92
2024/02/25 05:57:46;;;;;;;11.88;7.28;;;;;;;9.42;61.36;100038.91;4948008;28;100454;-92
2024/02/25 06:00:14;;;;;;;;;;;;;;;9.41;61.07;100038.06;4951581;28;96829;-92
2024/02/25 06:02:44;;;;;;;11.13;7.05;;;;;;;9.46;61.36;100043.25;4950752;28;96856;-92
2024/02/25 06:05:14;;;;;;;12.88;7.10;;;;;;;9.44;61.21;100050.19;4950704;28;98903;-92
2024/02/25 06:07:39;;;;;;;11.23;6.65;;;;;;;9.44;61.08;100058.00;4947792;28;97837;-92
2024/02/25 06:10:05;;;;;;;11.32;5.82;;;;;;;9.42;61.16;100054.53;4935051;28;96950;-88
2024/02/25 06:12:35;;;;;;;12.15;6.68;;;;;;;9.43;61.24;100056.25;4962867;28;96844;-88
2024/02/25 06:15:11;;;;;;;12.85;7.22;;;;;;;9.43;61.40;100058.84;4961214;28;100338;-88
2024/02/25 06:17:41;;;;;;;13.23;7.90;;;;;;;9.43;61.33;100058.84;4936771;28;99288;-88
2024/02/25 06:20:11;;;;;;;13.18;7.70;;;;;;;9.43;61.45;100062.34;4929847;28;96936;-88
2024/02/25 06:22:38;;;;;;;13.40;7.93;;;;;;;9.45;61.28;100059.75;4945176;28;96892;-89
2024/02/25 06:25:05;;;;;;;13.25;7.65;;;;;;;9.44;61.32;100058.00;4960836;28;97982;-88
2024/02/25 06:27:35;;;;;;;15.00;6.90;;;;;;;9.43;61.42;100066.66;4946747;28;100334;-88
2024/02/25 06:30:08;;;;;;;20.13;8.13;;;;;;;9.40;61.48;100067.53;4933662;28;96966;-89
2024/02/25 06:32:33;;;;;;;13.18;7.72;;;;;;;9.40;61.34;100067.53;4963875;28;96944;-88
2024/02/25 06:34:59;;;;;;;15.18;7.93;;;;;;;9.41;61.63;100076.19;4945120;28;100137;-88
2024/02/25 06:37:31;;;;;;;11.68;6.15;;;;;;;9.41;61.49;100073.59;4929760;28;99813;-88
2024/02/25 06:39:57;;;;;;;13.05;7.25;;;;;;;9.42;61.39;100071.00;4931221;28;96813;-88
2024/02/25 06:42:23;;;;;;;13.32;7.75;;;;;;;9.42;61.38;100067.53;4933018;28;97017;-89
2024/02/25 06:44:49;;;;;;;14.80;8.50;;;;;;;9.42;61.46;100070.16;4948894;28;100620;-88
2024/02/25 06:47:14;;;;;;;13.95;8.20;;;;;;;9.42;61.53;100075.34;4946380;28;98983;-88
2024/02/25 06:49:40;;;;;;;15.77;8.90;;;;;;;9.43;61.53;100074.47;4946897;28;96869;-88
2024/02/25 06:52:06;;;;;;;18.83;10.63;;;;;;;9.43;61.54;100069.25;4964310;28;96833;-89
2024/02/25 06:54:31;;;;;;;18.52;9.65;;;;;;;9.42;61.50;100072.75;4951272;28;100181;-88
2024/02/25 06:56:57;;;;;;;18.33;10.73;;;;;;;9.41;61.50;100077.09;4940983;28;99471;-89
2024/02/25 06:59:26;;;;;;;20.48;10.80;;;;;;;9.40;61.68;100079.69;4945645;28;96929;-88
2024/02/25 07:01:51;;;;;;;18.55;10.20;;;;;;;9.44;61.63;100081.44;4932835;28;96939;-88
2024/02/25 07:04:17;;;;;;;18.73;10.43;;;;;;;9.45;61.79;100083.19;4925163;28;99536;-88
2024/02/25 07:06:43;;;;;;;17.52;9.73;;;;;;;9.46;61.82;100082.31;4951160;28;97547;-88
2024/02/25 07:09:09;;;;;;;18.05;9.75;;;;;;;9.50;61.33;100094.47;4933478;28;97128;-88
2024/02/25 07:11:34;;;;;;;20.98;11.13;;;;;;;9.51;61.58;100088.41;4952028;28;96938;-89
2024/02/25 07:14:00;;;;;;;17.83;9.90;;;;;;;9.54;61.71;100088.44;4932117;28;100559;-88
2024/02/25 07:16:26;;;;;;;21.10;10.07;;;;;;;9.56;61.59;100089.28;4946126;28;97526;-89
2024/02/25 07:18:52;;;;;;;18.95;10.55;;;;;;;9.58;61.85;100092.78;4943503;28;96934;-88
2024/02/25 07:21:17;;;;;;;19.75;9.35;;;;;;;9.58;61.76;100087.56;4951857;28;97160;-88
2024/02/25 07:23:43;;;;;;;20.15;10.27;;;;;;;9.59;61.79;100088.44;4951361;28;100280;-88
2024/02/25 07:26:10;;;;;;;16.92;9.23;;;;;;;9.59;61.68;100088.44;4936388;28;100006;-88
2024/02/25 07:28:40;;;;;;;20.83;10.45;;;;;;;9.59;61.87;100099.72;4951109;28;96774;-89
2024/02/25 07:31:13;;;;;;;20.55;10.98;;;;;;;9.58;61.73;100100.59;4951148;28;96901;-89
2024/02/25 07:33:39;;;;;;;19.30;10.25;;;;;;;9.61;61.93;100100.59;4932810;28;100310;-89
2024/02/25 07:36:19;;;;;;;17.60;9.82;;;;;;;9.63;61.82;100101.47;4947116;28;100070;-88
2024/02/25 07:38:48;;;;;;;19.88;10.80;;;;;;;9.66;61.96;100106.72;4961550;28;96782;-89
2024/02/25 07:41:14;;;;;;;17.98;10.05;;;;;;;9.66;61.70;100105.81;4931485;28;97022;-88
2024/02/25 07:43:40;;;;;;;19.20;9.65;;;;;;;9.65;61.74;100109.31;4963794;28;100164;-88
2024/02/25 07:46:06;;;;;;;16.98;9.40;;;;;;;9.65;61.65;100104.09;4967821;28;97480;-90
2024/02/25 07:48:32;;;;;;;17.20;9.55;;;;;;;9.67;61.92;100102.38;4927081;28;96809;-88
2024/02/25 07:50:58;;;;;;;17.23;10.02;;;;;;;9.68;61.92;100110.19;4933100;28;96930;-89
2024/02/25 07:53:24;;;;;;;21.20;11.05;;;;;;;9.71;61.98;100109.31;4949934;28;99977;-88
2024/02/25 07:55:49;;;;;;;16.52;8.77;;;;;;;9.75;61.90;100108.50;4943789;28;100001;-89
2024/02/25 07:58:15;;;;;;;17.75;10.07;;;;;;;9.76;61.81;100106.75;4942195;28;96874;-89
2024/02/25 08:00:41;;;;;;;17.98;10.93;;;;;;;9.77;61.96;100108.47;4934950;28;96819;-89
2024/02/25 08:03:06;;;;;;;18.17;9.65;;;;;;;9.80;62.12;100113.69;4937685;28;97933;-89
2024/02/25 08:05:32;;;;;;;21.00;11.20;;;;;;;9.81;62.33;100105.88;4943054;28;98638;-89
2024/02/25 08:07:58;;;;;;;17.58;9.27;;;;;;;9.87;62.37;100115.47;4950153;28;96989;-89
2024/02/25 08:10:23;;;;;;;19.23;10.57;;;;;;;9.96;62.07;100115.47;4934461;28;98175;-88
2024/02/25 08:12:50;;;;;;;24.33;13.70;;;;;;;10.01;62.02;100113.78;4941484;28;100413;-89
2024/02/25 08:15:17;;;;;;;24.23;11.90;;;;;;;10.06;61.84;100119.00;4952286;28;99653;-89
2024/02/25 08:17:43;;;;;;;22.80;13.27;;;;;;;10.08;62.11;100117.28;4953639;28;96750;-89
2024/02/25 08:20:10;;;;;;;23.50;12.40;;;;;;;10.13;62.19;100125.13;4937399;28;96834;-89
2024/02/25 08:23:20;;;;;;;21.63;11.63;;;;;;;10.18;62.31;100120.75;4947713;28;100604;-88
2024/02/25 08:25:44;;;;;;;;;;;;;;;10.27;62.49;100131.22;4905049;28;100468;-90
2024/02/25 08:28:10;;;;;;;20.20;10.93;;;;;;;10.39;62.29;100123.47;4913467;28;96999;-89
2024/02/25 08:30:45;;;;;;;19.08;9.90;;;;;;;10.42;62.03;100120.00;4881523;28;96984;-89
2024/02/25 08:33:10;;;;;;;19.00;9.50;;;;;;;10.50;62.16;100122.59;4912050;28;99968;-88
2024/02/25 08:35:36;;;;;;;20.73;12.43;;;;;;;10.54;61.74;100126.97;4895412;28;99516;-89
2024/02/25 08:38:01;;;;;;;17.67;10.07;;;;;;;10.56;61.80;100130.44;4893540;28;97063;-88
2024/02/25 08:40:27;;;;;;;18.90;10.48;;;;;;;10.61;62.05;100132.19;4911191;28;96951;-89
2024/02/25 08:42:53;;;;;;;21.45;12.20;;;;;;;10.66;61.84;100135.66;4897435;28;100333;-90
2024/02/25 08:45:18;;;;;;;22.48;10.30;;;;;;;10.71;61.88;100133.03;4911680;28;100404;-89
2024/02/25 08:47:44;;;;;;;21.50;10.55;;;;;;;10.76;61.76;100133.91;4915254;28;96835;-91
2024/02/25 08:50:10;;;;;;;22.48;13.00;;;;;;;10.78;61.59;100134.78;4911661;28;96965;-89
2024/02/25 08:52:36;;;;;;;22.55;12.07;;;;;;;10.80;61.52;100130.47;4908469;28;99991;-89
2024/02/25 08:55:01;;;;;;;22.50;11.25;;;;;;;10.84;61.68;100133.94;4894716;28;97642;-90
2024/02/25 08:57:31;;;;;;;23.20;13.18;;;;;;;10.87;61.61;100133.91;4914473;28;96883;-91
2024/02/25 08:59:57;;;;;;;22.33;12.98;;;;;;;10.89;61.55;100139.13;4882370;28;96991;-90
2024/02/25 09:02:22;;;;;;;24.10;12.95;;;;;;;10.90;61.31;100138.28;4894646;28;99436;-90
2024/02/25 09:04:50;;;;;;;23.02;13.20;;;;;;;10.89;61.13;100134.81;4944501;28;97447;-90
2024/02/25 09:07:17;;;;;;;22.55;13.75;;;;;;;10.89;61.30;100140.03;4945610;28;96874;-90
2024/02/25 09:09:43;;;;;;;23.48;12.27;;;;;;;10.89;61.17;100140.03;4941576;28;96910;-91
2024/02/25 09:12:09;;;;;;;23.92;14.25;;;;;;;10.90;61.19;100139.16;4937868;28;100499;-89
2024/02/25 09:14:35;;;;;;;23.42;13.68;;;;;;;10.91;61.13;100142.63;4965854;28;100431;-89
2024/02/25 09:17:00;;;;;;;25.77;14.57;;;;;;;10.92;61.10;100142.63;4953634;28;96747;-89
2024/02/25 09:19:26;;;;;;;24.42;14.30;;;;;;;10.97;61.36;100137.41;4953344;28;96820;-90
2024/02/25 09:21:51;;;;;;;27.15;14.30;;;;;;;11.02;61.33;100135.66;4956043;28;100143;-90
2024/02/25 09:24:20;;;;;;;24.42;14.25;;;;;;;11.05;61.48;100133.94;4952585;28;99166;-90
2024/02/25 09:26:49;;;;;;;24.05;13.18;;;;;;;11.14;61.63;100130.44;4967433;28;96724;-90
2024/02/25 09:29:20;;;;;;;23.25;12.18;;;;;;;11.22;61.62;100127.81;4952515;28;97106;-90
2024/02/25 09:31:46;;;;;;;25.20;12.43;;;;;;;11.33;61.82;100127.78;4967976;28;98823;-90
2024/02/25 09:34:12;;;;;;;26.35;14.63;;;;;;;11.45;61.69;100126.91;4953735;28;100351;-90
2024/02/25 09:36:38;;;;;;;24.95;14.55;;;;;;;11.54;61.66;100127.75;4939640;28;96721;-90
2024/02/25 09:39:06;;;;;;;24.25;13.65;;;;;;;11.66;61.51;100121.63;4952438;28;96899;-89
2024/02/25 09:41:39;;;;;;;24.95;13.93;;;;;;;11.79;61.33;100122.44;4951807;28;99928;-90
2024/02/25 09:44:23;;;;;;;23.90;13.57;;;;;;;11.90;60.83;100125.91;4950086;28;100304;-90
2024/02/25 09:46:55;;;;;;;21.10;13.13;;;;;;;11.93;60.16;100133.72;4950136;28;96778;-89
2024/02/25 09:49:26;;;;;;;23.58;12.90;;;;;;;12.00;60.91;100130.22;4949726;28;97183;-88
2024/02/25 09:51:53;;;;;;;21.52;13.05;;;;;;;12.11;60.66;100127.53;4941329;28;97655;-88
2024/02/25 09:54:19;;;;;;;21.58;12.70;;;;;;;12.20;60.04;100129.25;4945434;28;99953;-89
2024/02/25 09:56:49;;;;;;;24.00;13.23;;;;;;;12.25;60.22;100131.84;4947553;28;96839;-89
2024/02/25 09:59:18;;;;;;;19.02;11.23;;;;;;;12.30;59.66;100130.03;4949665;28;96853;-90
2024/02/25 10:01:47;;;;;;;17.55;9.90;;;;;;;12.27;59.45;100124.84;4949456;28;101000;-90
2024/02/25 10:04:13;;;;;;;22.48;12.25;;;;;;;12.24;59.52;100130.94;4950195;28;100541;-89
2024/02/25 10:06:40;;;;;;;19.10;11.43;;;;;;;12.24;59.54;100132.72;4946408;28;96851;-90
2024/02/25 10:09:14;;;;;;;18.52;11.32;;;;;;;12.22;59.05;100132.72;4949034;28;96922;-89
2024/02/25 10:11:43;;;;;;;17.08;10.95;;;;;;;12.19;58.84;100137.94;4948201;28;100780;-90
2024/02/25 10:14:09;;;;;;;20.73;10.43;;;;;;;12.16;59.18;100127.53;4958584;28;99601;-88
2024/02/25 10:16:39;;;;;;;16.90;10.57;;;;;;;12.19;59.44;100138.84;4964095;28;96920;-89
2024/02/25 10:19:04;;;;;;;16.55;10.95;;;;;;;12.20;59.41;100129.25;4947821;28;97489;-90
2024/02/25 10:21:36;;;;;;;18.60;10.88;;;;;;;12.24;59.43;100133.56;4946973;28;97654;-91
2024/02/25 10:24:02;;;;;;;17.38;11.25;;;;;;;12.30;59.05;100138.78;4930233;28;99959;-88
2024/02/25 10:26:28;;;;;;;17.20;11.43;;;;;;;12.33;59.22;100127.41;4944019;28;96871;-89
2024/02/25 10:29:06;;;;;;;18.85;11.52;;;;;;;12.32;58.95;100126.56;4942620;28;96816;-88
2024/02/25 10:31:39;;;;;;;18.25;10.02;;;;;;;12.32;58.82;100120.47;4946715;28;98953;-89
2024/02/25 10:34:05;;;;;;;18.13;10.85;;;;;;;12.34;58.94;100131.78;4948729;28;97513;-89
2024/02/25 10:36:32;;;;;;;20.25;11.45;;;;;;;12.36;58.81;100128.25;4931233;28;96868;-89
2024/02/25 10:38:57;;;;;;;18.27;10.02;;;;;;;12.41;58.64;100130.88;4951811;28;96997;-89
2024/02/25 10:41:24;;;;;;;16.73;10.60;;;;;;;12.42;58.38;100137.81;4950171;28;99892;-88
2024/02/25 10:44:02;;;;;;;17.42;10.85;;;;;;;12.33;57.67;100130.88;4948260;28;99952;-88
2024/02/25 10:46:47;;;;;;;18.02;11.07;;;;;;;12.28;57.86;100143.16;4933494;28;96911;-89
2024/02/25 10:49:16;;;;;;;14.45;9.13;;;;;;;12.27;57.70;100136.16;4962509;28;97069;-89
2024/02/25 10:51:45;;;;;;;15.75;10.02;;;;;;;12.24;57.86;100136.19;4946059;28;100513;-89
2024/02/25 10:54:15;;;;;;;15.65;9.18;;;;;;;12.26;57.75;100142.25;4950158;28;98740;-89
2024/02/25 10:56:44;;;;;;;19.27;10.32;;;;;;;12.24;57.57;100138.78;4943551;28;97216;-88
2024/02/25 10:59:18;;;;;;;15.85;9.52;;;;;;;12.22;57.16;100142.31;4946774;28;96858;-89
2024/02/25 11:01:48;;;;;;;16.77;9.02;;;;;;;12.15;57.35;100144.94;4946954;28;100733;-89
2024/02/25 11:04:18;;;;;;;14.18;9.00;;;;;;;12.13;57.14;100143.22;4944635;28;100604;-89
2024/02/25 11:06:44;;;;;;;14.05;8.75;;;;;;;12.09;57.09;100142.38;4943866;28;97017;-88
2024/02/25 11:09:14;;;;;;;14.63;8.68;;;;;;;12.09;57.04;100141.50;4932879;28;96880;-89
2024/02/25 11:11:43;;;;;;;16.40;9.63;;;;;;;12.04;57.01;100138.91;4947174;28;97191;-89
2024/02/25 11:14:16;;;;;;;16.13;9.25;;;;;;;12.03;57.00;100139.75;4962510;28;98534;-89
2024/02/25 11:16:48;;;;;;;;;;;;;;;12.00;57.51;100147.66;4934062;28;97139;-89
2024/02/25 11:19:15;;;;;;;;;;;;;;;11.99;57.54;100143.28;4943787;28;96807;-90
2024/02/25 11:21:41;;;;;;;17.23;8.80;;;;;;;12.00;57.27;100139.81;4949867;28;100231;-90
2024/02/25 11:24:11;;;;;;;16.15;9.07;;;;;;;11.97;57.24;100145.03;4934200;28;99691;-88